sensor_id;sensor_type;location;lat;lon;timestamp;P1;durP1;ratioP1;P2;durP2;ratioP2
51358;SDS011;37448;51.588;7.248;2023-07-13T00:01:42;5.90;;;1.45;;
51358;SDS011;37448;51.588;7.248;2023-07-13T00:03:43;4.45;;;1.60;;
51358;SDS011;37448;51.588;7.248;2023-07-13T00:05:43;7.45;;;1.60;;
51358;SDS011;37448;51.588;7.248;2023-07-13T00:07:44;3.05;;;1.35;;
51358;SDS011;37448;51.588;7.248;2023-07-13T00:09:46;1.90;;;1.00;;
51358;SDS011;37448;51.588;7.248;2023-07-13T00:11:52;3.17;;;1.50;;
51358;SDS011;37448;51.588;7.248;2023-07-13T00:13:54;5.43;;;2.17;;
51358;SDS011;37448;51.588;7.248;2023-07-13T00:15:55;2.75;;;1.50;;
51358;SDS011;37448;51.588;7.248;2023-07-13T00:17:56;4.25;;;1.50;;
51358;SDS011;37448;51.588;7.248;2023-07-13T00:19:57;6.40;;;1.90;;
51358;SDS011;37448;51.588;7.248;2023-07-13T00:21:58;5.15;;;1.42;;
51358;SDS011;37448;51.588;7.248;2023-07-13T00:23:58;3.35;;;1.15;;
51358;SDS011;37448;51.588;7.248;2023-07-13T00:26:04;4.80;;;1.15;;
51358;SDS011;37448;51.588;7.248;2023-07-13T00:28:06;5.47;;;1.17;;
51358;SDS011;37448;51.588;7.248;2023-07-13T00:30:07;1.63;;;0.93;;
51358;SDS011;37448;51.588;7.248;2023-07-13T00:32:09;3.45;;;1.05;;
51358;SDS011;37448;51.588;7.248;2023-07-13T00:34:10;6.50;;;2.00;;
51358;SDS011;37448;51.588;7.248;2023-07-13T00:36:10;2.00;;;1.02;;
51358;SDS011;37448;51.588;7.248;2023-07-13T00:38:11;2.08;;;1.35;;
51358;SDS011;37448;51.588;7.248;2023-07-13T00:40:12;5.65;;;1.50;;
51358;SDS011;37448;51.588;7.248;2023-07-13T00:42:14;4.72;;;1.42;;
51358;SDS011;37448;51.588;7.248;2023-07-13T00:44:15;4.13;;;1.88;;
51358;SDS011;37448;51.588;7.248;2023-07-13T00:46:20;2.97;;;1.30;;
51358;SDS011;37448;51.588;7.248;2023-07-13T00:48:26;8.18;;;1.90;;
51358;SDS011;37448;51.588;7.248;2023-07-13T00:50:29;3.58;;;1.80;;
51358;SDS011;37448;51.588;7.248;2023-07-13T00:52:29;4.90;;;1.40;;
51358;SDS011;37448;51.588;7.248;2023-07-13T00:54:33;6.00;;;1.40;;
51358;SDS011;37448;51.588;7.248;2023-07-13T00:56:36;3.40;;;1.50;;
51358;SDS011;37448;51.588;7.248;2023-07-13T00:58:37;2.60;;;1.27;;
51358;SDS011;37448;51.588;7.248;2023-07-13T01:00:38;2.47;;;1.20;;
51358;SDS011;37448;51.588;7.248;2023-07-13T01:02:41;2.28;;;1.27;;
51358;SDS011;37448;51.588;7.248;2023-07-13T01:04:44;2.95;;;1.23;;
51358;SDS011;37448;51.588;7.248;2023-07-13T01:06:44;3.00;;;0.98;;
51358;SDS011;37448;51.588;7.248;2023-07-13T01:08:47;4.22;;;1.45;;
51358;SDS011;37448;51.588;7.248;2023-07-13T01:10:50;3.70;;;1.73;;
51358;SDS011;37448;51.588;7.248;2023-07-13T01:12:55;4.03;;;1.52;;
51358;SDS011;37448;51.588;7.248;2023-07-13T01:15:00;4.05;;;1.30;;
51358;SDS011;37448;51.588;7.248;2023-07-13T01:17:01;3.45;;;1.20;;
51358;SDS011;37448;51.588;7.248;2023-07-13T01:19:09;4.45;;;1.50;;
51358;SDS011;37448;51.588;7.248;2023-07-13T01:21:18;3.10;;;1.13;;
51358;SDS011;37448;51.588;7.248;2023-07-13T01:23:19;7.57;;;1.75;;
51358;SDS011;37448;51.588;7.248;2023-07-13T01:25:20;4.68;;;1.35;;
51358;SDS011;37448;51.588;7.248;2023-07-13T01:27:23;4.15;;;1.13;;
51358;SDS011;37448;51.588;7.248;2023-07-13T01:29:25;6.22;;;1.25;;
51358;SDS011;37448;51.588;7.248;2023-07-13T01:31:25;2.55;;;0.95;;
51358;SDS011;37448;51.588;7.248;2023-07-13T01:33:26;1.33;;;0.90;;
51358;SDS011;37448;51.588;7.248;2023-07-13T01:35:27;4.00;;;1.15;;
51358;SDS011;37448;51.588;7.248;2023-07-13T01:37:27;3.40;;;0.93;;
51358;SDS011;37448;51.588;7.248;2023-07-13T01:39:36;3.30;;;1.20;;
51358;SDS011;37448;51.588;7.248;2023-07-13T01:41:37;2.15;;;1.20;;
51358;SDS011;37448;51.588;7.248;2023-07-13T01:43:37;5.38;;;1.20;;
51358;SDS011;37448;51.588;7.248;2023-07-13T01:45:40;4.82;;;1.10;;
51358;SDS011;37448;51.588;7.248;2023-07-13T01:47:43;4.85;;;2.08;;
51358;SDS011;37448;51.588;7.248;2023-07-13T01:49:44;4.82;;;1.00;;
51358;SDS011;37448;51.588;7.248;2023-07-13T01:51:46;3.50;;;1.20;;
51358;SDS011;37448;51.588;7.248;2023-07-13T01:53:46;3.33;;;1.65;;
51358;SDS011;37448;51.588;7.248;2023-07-13T01:55:47;2.60;;;1.15;;
51358;SDS011;37448;51.588;7.248;2023-07-13T01:57:48;3.53;;;1.10;;
51358;SDS011;37448;51.588;7.248;2023-07-13T01:59:49;2.15;;;0.80;;
51358;SDS011;37448;51.588;7.248;2023-07-13T02:01:49;2.88;;;1.20;;
51358;SDS011;37448;51.588;7.248;2023-07-13T02:03:50;3.05;;;1.00;;
51358;SDS011;37448;51.588;7.248;2023-07-13T02:05:50;5.00;;;1.55;;
51358;SDS011;37448;51.588;7.248;2023-07-13T02:07:50;4.97;;;1.05;;
51358;SDS011;37448;51.588;7.248;2023-07-13T02:09:51;4.68;;;1.20;;
51358;SDS011;37448;51.588;7.248;2023-07-13T02:11:51;4.03;;;1.15;;
51358;SDS011;37448;51.588;7.248;2023-07-13T02:13:52;3.25;;;1.25;;
51358;SDS011;37448;51.588;7.248;2023-07-13T02:15:52;6.32;;;1.17;;
51358;SDS011;37448;51.588;7.248;2023-07-13T02:17:52;2.33;;;1.02;;
51358;SDS011;37448;51.588;7.248;2023-07-13T02:19:53;3.53;;;1.20;;
51358;SDS011;37448;51.588;7.248;2023-07-13T02:21:54;3.42;;;1.10;;
51358;SDS011;37448;51.588;7.248;2023-07-13T02:23:54;2.28;;;1.10;;
51358;SDS011;37448;51.588;7.248;2023-07-13T02:25:55;5.40;;;1.30;;
51358;SDS011;37448;51.588;7.248;2023-07-13T02:27:56;3.50;;;1.67;;
51358;SDS011;37448;51.588;7.248;2023-07-13T02:29:56;4.47;;;1.02;;
51358;SDS011;37448;51.588;7.248;2023-07-13T02:31:57;1.35;;;1.00;;
51358;SDS011;37448;51.588;7.248;2023-07-13T02:33:57;5.68;;;1.60;;
51358;SDS011;37448;51.588;7.248;2023-07-13T02:35:58;5.68;;;1.23;;
51358;SDS011;37448;51.588;7.248;2023-07-13T02:37:58;1.95;;;0.90;;
51358;SDS011;37448;51.588;7.248;2023-07-13T02:39:59;2.80;;;0.70;;
51358;SDS011;37448;51.588;7.248;2023-07-13T02:41:59;3.00;;;1.08;;
51358;SDS011;37448;51.588;7.248;2023-07-13T02:44:00;3.72;;;1.25;;
51358;SDS011;37448;51.588;7.248;2023-07-13T02:46:05;5.82;;;1.40;;
51358;SDS011;37448;51.588;7.248;2023-07-13T02:48:08;1.77;;;0.98;;
51358;SDS011;37448;51.588;7.248;2023-07-13T02:50:09;3.22;;;1.10;;
51358;SDS011;37448;51.588;7.248;2023-07-13T02:52:09;3.13;;;1.27;;
51358;SDS011;37448;51.588;7.248;2023-07-13T02:54:10;5.70;;;1.17;;
51358;SDS011;37448;51.588;7.248;2023-07-13T02:56:11;2.28;;;1.08;;
51358;SDS011;37448;51.588;7.248;2023-07-13T02:58:12;4.03;;;1.20;;
51358;SDS011;37448;51.588;7.248;2023-07-13T03:00:16;2.03;;;1.02;;
51358;SDS011;37448;51.588;7.248;2023-07-13T03:02:17;4.03;;;1.10;;
51358;SDS011;37448;51.588;7.248;2023-07-13T03:04:18;1.33;;;0.90;;
51358;SDS011;37448;51.588;7.248;2023-07-13T03:06:19;1.75;;;0.80;;
51358;SDS011;37448;51.588;7.248;2023-07-13T03:08:25;1.95;;;0.80;;
51358;SDS011;37448;51.588;7.248;2023-07-13T03:10:27;4.70;;;1.42;;
51358;SDS011;37448;51.588;7.248;2023-07-13T03:12:28;4.93;;;0.90;;
51358;SDS011;37448;51.588;7.248;2023-07-13T03:14:29;2.20;;;0.80;;
51358;SDS011;37448;51.588;7.248;2023-07-13T03:16:30;3.97;;;1.67;;
51358;SDS011;37448;51.588;7.248;2023-07-13T03:18:31;3.10;;;1.02;;
51358;SDS011;37448;51.588;7.248;2023-07-13T03:20:35;3.17;;;1.20;;
51358;SDS011;37448;51.588;7.248;2023-07-13T03:22:36;3.83;;;1.20;;
51358;SDS011;37448;51.588;7.248;2023-07-13T03:24:36;2.20;;;1.92;;
51358;SDS011;37448;51.588;7.248;2023-07-13T03:26:38;2.35;;;1.25;;
51358;SDS011;37448;51.588;7.248;2023-07-13T03:28:39;3.50;;;0.90;;
51358;SDS011;37448;51.588;7.248;2023-07-13T03:30:41;2.85;;;0.88;;
51358;SDS011;37448;51.588;7.248;2023-07-13T03:32:42;3.35;;;1.30;;
51358;SDS011;37448;51.588;7.248;2023-07-13T03:34:42;3.03;;;1.00;;
51358;SDS011;37448;51.588;7.248;2023-07-13T03:36:43;2.65;;;1.05;;
51358;SDS011;37448;51.588;7.248;2023-07-13T03:38:47;3.13;;;1.05;;
51358;SDS011;37448;51.588;7.248;2023-07-13T03:40:51;3.58;;;1.15;;
51358;SDS011;37448;51.588;7.248;2023-07-13T03:42:52;3.90;;;1.80;;
51358;SDS011;37448;51.588;7.248;2023-07-13T03:44:53;2.25;;;0.88;;
51358;SDS011;37448;51.588;7.248;2023-07-13T03:46:53;4.78;;;1.77;;
51358;SDS011;37448;51.588;7.248;2023-07-13T03:48:54;3.08;;;0.90;;
51358;SDS011;37448;51.588;7.248;2023-07-13T03:50:54;3.90;;;1.30;;
51358;SDS011;37448;51.588;7.248;2023-07-13T03:52:55;3.33;;;1.15;;
51358;SDS011;37448;51.588;7.248;2023-07-13T03:54:57;9.15;;;2.95;;
51358;SDS011;37448;51.588;7.248;2023-07-13T03:56:58;2.45;;;1.05;;
51358;SDS011;37448;51.588;7.248;2023-07-13T03:58:58;3.58;;;1.55;;
51358;SDS011;37448;51.588;7.248;2023-07-13T04:00:59;4.63;;;0.82;;
51358;SDS011;37448;51.588;7.248;2023-07-13T04:03:01;3.38;;;0.95;;
51358;SDS011;37448;51.588;7.248;2023-07-13T04:05:01;3.28;;;1.05;;
51358;SDS011;37448;51.588;7.248;2023-07-13T04:07:01;4.10;;;0.90;;
51358;SDS011;37448;51.588;7.248;2023-07-13T04:09:02;6.20;;;1.42;;
51358;SDS011;37448;51.588;7.248;2023-07-13T04:13:05;8.33;;;1.07;;
51358;SDS011;37448;51.588;7.248;2023-07-13T04:15:06;3.83;;;1.15;;
51358;SDS011;37448;51.588;7.248;2023-07-13T04:17:07;2.90;;;0.95;;
51358;SDS011;37448;51.588;7.248;2023-07-13T04:19:08;4.95;;;1.42;;
51358;SDS011;37448;51.588;7.248;2023-07-13T04:21:10;5.25;;;2.28;;
51358;SDS011;37448;51.588;7.248;2023-07-13T04:23:10;4.80;;;1.10;;
51358;SDS011;37448;51.588;7.248;2023-07-13T04:25:11;4.68;;;1.27;;
51358;SDS011;37448;51.588;7.248;2023-07-13T04:27:11;2.38;;;1.02;;
51358;SDS011;37448;51.588;7.248;2023-07-13T04:29:11;4.82;;;1.60;;
51358;SDS011;37448;51.588;7.248;2023-07-13T04:31:12;2.88;;;1.85;;
51358;SDS011;37448;51.588;7.248;2023-07-13T04:33:12;4.80;;;1.75;;
51358;SDS011;37448;51.588;7.248;2023-07-13T04:35:13;6.32;;;1.17;;
51358;SDS011;37448;51.588;7.248;2023-07-13T04:37:14;2.95;;;1.40;;
51358;SDS011;37448;51.588;7.248;2023-07-13T04:39:14;2.83;;;1.15;;
51358;SDS011;37448;51.588;7.248;2023-07-13T04:41:15;2.83;;;1.30;;
51358;SDS011;37448;51.588;7.248;2023-07-13T04:43:15;3.42;;;1.08;;
51358;SDS011;37448;51.588;7.248;2023-07-13T04:45:16;1.80;;;1.17;;
51358;SDS011;37448;51.588;7.248;2023-07-13T04:47:17;4.47;;;1.30;;
51358;SDS011;37448;51.588;7.248;2023-07-13T04:49:18;2.15;;;0.90;;
51358;SDS011;37448;51.588;7.248;2023-07-13T04:51:18;6.85;;;1.45;;
51358;SDS011;37448;51.588;7.248;2023-07-13T04:53:19;7.43;;;1.42;;
51358;SDS011;37448;51.588;7.248;2023-07-13T04:55:20;8.93;;;1.40;;
51358;SDS011;37448;51.588;7.248;2023-07-13T04:57:20;4.20;;;1.35;;
51358;SDS011;37448;51.588;7.248;2023-07-13T04:59:21;2.63;;;1.13;;
51358;SDS011;37448;51.588;7.248;2023-07-13T05:01:22;4.53;;;1.25;;
51358;SDS011;37448;51.588;7.248;2023-07-13T05:03:22;2.15;;;1.48;;
51358;SDS011;37448;51.588;7.248;2023-07-13T05:05:23;4.45;;;1.30;;
51358;SDS011;37448;51.588;7.248;2023-07-13T05:07:25;5.07;;;1.40;;
51358;SDS011;37448;51.588;7.248;2023-07-13T05:09:26;6.05;;;1.40;;
51358;SDS011;37448;51.588;7.248;2023-07-13T05:11:26;4.72;;;1.35;;
51358;SDS011;37448;51.588;7.248;2023-07-13T05:13:27;3.65;;;1.30;;
51358;SDS011;37448;51.588;7.248;2023-07-13T05:15:27;3.45;;;1.00;;
51358;SDS011;37448;51.588;7.248;2023-07-13T05:17:28;3.15;;;1.33;;
51358;SDS011;37448;51.588;7.248;2023-07-13T05:19:28;3.70;;;1.23;;
51358;SDS011;37448;51.588;7.248;2023-07-13T05:21:29;4.93;;;1.48;;
51358;SDS011;37448;51.588;7.248;2023-07-13T05:23:30;4.20;;;1.65;;
51358;SDS011;37448;51.588;7.248;2023-07-13T05:25:32;2.30;;;1.58;;
51358;SDS011;37448;51.588;7.248;2023-07-13T05:27:33;3.28;;;1.25;;
51358;SDS011;37448;51.588;7.248;2023-07-13T05:29:36;4.05;;;1.33;;
51358;SDS011;37448;51.588;7.248;2023-07-13T05:31:37;3.60;;;1.20;;
51358;SDS011;37448;51.588;7.248;2023-07-13T05:33:37;4.40;;;1.35;;
51358;SDS011;37448;51.588;7.248;2023-07-13T05:35:37;3.92;;;2.28;;
51358;SDS011;37448;51.588;7.248;2023-07-13T05:37:38;4.72;;;1.52;;
51358;SDS011;37448;51.588;7.248;2023-07-13T05:39:38;4.30;;;1.30;;
51358;SDS011;37448;51.588;7.248;2023-07-13T05:41:39;4.03;;;1.98;;
51358;SDS011;37448;51.588;7.248;2023-07-13T05:43:40;6.28;;;1.25;;
51358;SDS011;37448;51.588;7.248;2023-07-13T05:45:40;5.72;;;1.40;;
51358;SDS011;37448;51.588;7.248;2023-07-13T05:47:41;4.22;;;1.55;;
51358;SDS011;37448;51.588;7.248;2023-07-13T05:49:41;4.60;;;1.40;;
51358;SDS011;37448;51.588;7.248;2023-07-13T05:51:42;2.92;;;1.40;;
51358;SDS011;37448;51.588;7.248;2023-07-13T05:53:42;3.45;;;1.30;;
51358;SDS011;37448;51.588;7.248;2023-07-13T05:55:43;4.65;;;1.38;;
51358;SDS011;37448;51.588;7.248;2023-07-13T05:57:47;5.95;;;1.30;;
51358;SDS011;37448;51.588;7.248;2023-07-13T05:59:48;4.88;;;1.50;;
51358;SDS011;37448;51.588;7.248;2023-07-13T06:01:48;6.55;;;1.45;;
51358;SDS011;37448;51.588;7.248;2023-07-13T06:03:49;5.63;;;1.75;;
51358;SDS011;37448;51.588;7.248;2023-07-13T06:05:50;4.85;;;1.35;;
51358;SDS011;37448;51.588;7.248;2023-07-13T06:07:50;2.95;;;1.05;;
51358;SDS011;37448;51.588;7.248;2023-07-13T06:09:51;6.40;;;1.85;;
51358;SDS011;37448;51.588;7.248;2023-07-13T06:11:51;5.63;;;1.60;;
51358;SDS011;37448;51.588;7.248;2023-07-13T06:13:51;9.38;;;2.13;;
51358;SDS011;37448;51.588;7.248;2023-07-13T06:15:52;5.82;;;2.20;;
51358;SDS011;37448;51.588;7.248;2023-07-13T06:17:52;6.10;;;2.10;;
51358;SDS011;37448;51.588;7.248;2023-07-13T06:19:53;4.20;;;1.65;;
51358;SDS011;37448;51.588;7.248;2023-07-13T06:21:53;7.88;;;1.80;;
51358;SDS011;37448;51.588;7.248;2023-07-13T06:23:53;5.10;;;1.63;;
51358;SDS011;37448;51.588;7.248;2023-07-13T06:25:54;5.65;;;1.90;;
51358;SDS011;37448;51.588;7.248;2023-07-13T06:27:54;7.15;;;2.10;;
51358;SDS011;37448;51.588;7.248;2023-07-13T06:29:55;6.05;;;1.98;;
51358;SDS011;37448;51.588;7.248;2023-07-13T06:31:55;8.00;;;1.88;;
51358;SDS011;37448;51.588;7.248;2023-07-13T06:33:55;8.02;;;2.17;;
51358;SDS011;37448;51.588;7.248;2023-07-13T06:35:56;5.35;;;2.10;;
51358;SDS011;37448;51.588;7.248;2023-07-13T06:37:56;6.63;;;2.35;;
51358;SDS011;37448;51.588;7.248;2023-07-13T06:39:56;5.35;;;2.35;;
51358;SDS011;37448;51.588;7.248;2023-07-13T06:41:57;5.68;;;2.05;;
51358;SDS011;37448;51.588;7.248;2023-07-13T06:43:57;10.57;;;2.08;;
51358;SDS011;37448;51.588;7.248;2023-07-13T06:45:57;6.75;;;1.90;;
51358;SDS011;37448;51.588;7.248;2023-07-13T06:47:58;5.85;;;1.88;;
51358;SDS011;37448;51.588;7.248;2023-07-13T06:49:58;4.60;;;1.70;;
51358;SDS011;37448;51.588;7.248;2023-07-13T06:52:00;6.38;;;2.67;;
51358;SDS011;37448;51.588;7.248;2023-07-13T06:54:00;5.63;;;1.98;;
51358;SDS011;37448;51.588;7.248;2023-07-13T06:56:01;5.10;;;2.13;;
51358;SDS011;37448;51.588;7.248;2023-07-13T06:58:01;6.90;;;2.05;;
51358;SDS011;37448;51.588;7.248;2023-07-13T07:00:01;5.53;;;2.10;;
51358;SDS011;37448;51.588;7.248;2023-07-13T07:02:02;7.38;;;2.55;;
51358;SDS011;37448;51.588;7.248;2023-07-13T07:04:03;9.35;;;2.50;;
51358;SDS011;37448;51.588;7.248;2023-07-13T07:06:15;5.13;;;2.42;;
51358;SDS011;37448;51.588;7.248;2023-07-13T07:08:18;7.90;;;2.53;;
51358;SDS011;37448;51.588;7.248;2023-07-13T07:10:18;7.50;;;2.13;;
51358;SDS011;37448;51.588;7.248;2023-07-13T07:12:19;8.77;;;2.45;;
51358;SDS011;37448;51.588;7.248;2023-07-13T07:14:19;7.30;;;2.42;;
51358;SDS011;37448;51.588;7.248;2023-07-13T07:16:20;5.35;;;2.13;;
51358;SDS011;37448;51.588;7.248;2023-07-13T07:18:21;3.75;;;2.20;;
51358;SDS011;37448;51.588;7.248;2023-07-13T07:20:21;7.95;;;2.90;;
51358;SDS011;37448;51.588;7.248;2023-07-13T07:22:22;9.70;;;2.83;;
51358;SDS011;37448;51.588;7.248;2023-07-13T07:24:22;5.70;;;3.40;;
51358;SDS011;37448;51.588;7.248;2023-07-13T07:26:22;8.50;;;3.13;;
51358;SDS011;37448;51.588;7.248;2023-07-13T07:28:23;8.10;;;2.60;;
51358;SDS011;37448;51.588;7.248;2023-07-13T07:30:23;6.40;;;2.55;;
51358;SDS011;37448;51.588;7.248;2023-07-13T07:32:24;8.70;;;2.80;;
51358;SDS011;37448;51.588;7.248;2023-07-13T07:34:24;5.55;;;2.45;;
51358;SDS011;37448;51.588;7.248;2023-07-13T07:36:25;11.40;;;3.15;;
51358;SDS011;37448;51.588;7.248;2023-07-13T07:38:25;11.02;;;3.15;;
51358;SDS011;37448;51.588;7.248;2023-07-13T07:40:26;7.00;;;2.95;;
51358;SDS011;37448;51.588;7.248;2023-07-13T07:42:26;5.03;;;2.30;;
51358;SDS011;37448;51.588;7.248;2023-07-13T07:44:27;7.45;;;2.58;;
51358;SDS011;37448;51.588;7.248;2023-07-13T07:46:28;6.43;;;2.60;;
51358;SDS011;37448;51.588;7.248;2023-07-13T07:48:29;7.38;;;2.42;;
51358;SDS011;37448;51.588;7.248;2023-07-13T07:50:30;7.65;;;2.10;;
51358;SDS011;37448;51.588;7.248;2023-07-13T07:52:31;10.10;;;3.22;;
51358;SDS011;37448;51.588;7.248;2023-07-13T07:54:31;5.38;;;2.75;;
51358;SDS011;37448;51.588;7.248;2023-07-13T07:56:32;7.68;;;2.47;;
51358;SDS011;37448;51.588;7.248;2023-07-13T07:58:32;6.78;;;2.97;;
51358;SDS011;37448;51.588;7.248;2023-07-13T08:00:33;4.72;;;2.83;;
51358;SDS011;37448;51.588;7.248;2023-07-13T08:02:33;6.47;;;2.53;;
51358;SDS011;37448;51.588;7.248;2023-07-13T08:04:34;13.07;;;3.15;;
51358;SDS011;37448;51.588;7.248;2023-07-13T08:06:34;8.52;;;2.85;;
51358;SDS011;37448;51.588;7.248;2023-07-13T08:08:34;7.00;;;2.97;;
51358;SDS011;37448;51.588;7.248;2023-07-13T08:10:35;5.55;;;2.42;;
51358;SDS011;37448;51.588;7.248;2023-07-13T08:12:37;8.00;;;3.38;;
51358;SDS011;37448;51.588;7.248;2023-07-13T08:14:39;4.50;;;3.10;;
51358;SDS011;37448;51.588;7.248;2023-07-13T08:16:39;6.15;;;3.00;;
51358;SDS011;37448;51.588;7.248;2023-07-13T08:18:40;8.68;;;3.25;;
51358;SDS011;37448;51.588;7.248;2023-07-13T08:20:40;5.13;;;3.22;;
51358;SDS011;37448;51.588;7.248;2023-07-13T08:22:41;6.38;;;3.03;;
51358;SDS011;37448;51.588;7.248;2023-07-13T08:24:41;8.10;;;3.38;;
51358;SDS011;37448;51.588;7.248;2023-07-13T08:26:45;7.20;;;3.35;;
51358;SDS011;37448;51.588;7.248;2023-07-13T08:28:46;5.18;;;3.58;;
51358;SDS011;37448;51.588;7.248;2023-07-13T08:30:46;7.05;;;3.70;;
51358;SDS011;37448;51.588;7.248;2023-07-13T08:32:49;7.25;;;2.90;;
51358;SDS011;37448;51.588;7.248;2023-07-13T08:34:49;5.68;;;3.22;;
51358;SDS011;37448;51.588;7.248;2023-07-13T08:36:50;9.57;;;3.33;;
51358;SDS011;37448;51.588;7.248;2023-07-13T08:38:50;8.27;;;3.15;;
51358;SDS011;37448;51.588;7.248;2023-07-13T08:40:52;7.60;;;3.78;;
51358;SDS011;37448;51.588;7.248;2023-07-13T08:42:56;12.57;;;3.75;;
51358;SDS011;37448;51.588;7.248;2023-07-13T08:47:17;11.13;;;3.20;;
51358;SDS011;37448;51.588;7.248;2023-07-13T08:49:21;10.93;;;3.58;;
51358;SDS011;37448;51.588;7.248;2023-07-13T08:51:25;6.45;;;4.00;;
51358;SDS011;37448;51.588;7.248;2023-07-13T08:53:37;5.53;;;3.20;;
51358;SDS011;37448;51.588;7.248;2023-07-13T08:55:42;10.02;;;3.50;;
51358;SDS011;37448;51.588;7.248;2023-07-13T08:57:43;7.47;;;3.95;;
51358;SDS011;37448;51.588;7.248;2023-07-13T08:59:48;10.50;;;3.33;;
51358;SDS011;37448;51.588;7.248;2023-07-13T09:01:55;6.00;;;3.15;;
51358;SDS011;37448;51.588;7.248;2023-07-13T09:03:59;6.38;;;3.25;;
51358;SDS011;37448;51.588;7.248;2023-07-13T09:06:07;6.75;;;2.80;;
51358;SDS011;37448;51.588;7.248;2023-07-13T09:08:21;7.88;;;3.53;;
51358;SDS011;37448;51.588;7.248;2023-07-13T09:10:32;8.30;;;3.10;;
51358;SDS011;37448;51.588;7.248;2023-07-13T09:14:53;6.43;;;2.95;;
51358;SDS011;37448;51.588;7.248;2023-07-13T09:16:55;4.60;;;2.15;;
51358;SDS011;37448;51.588;7.248;2023-07-13T09:18:59;4.07;;;2.40;;
51358;SDS011;37448;51.588;7.248;2023-07-13T09:21:07;4.55;;;2.25;;
51358;SDS011;37448;51.588;7.248;2023-07-13T09:23:21;7.57;;;2.08;;
51358;SDS011;37448;51.588;7.248;2023-07-13T09:25:32;5.57;;;2.10;;
51358;SDS011;37448;51.588;7.248;2023-07-13T09:27:36;3.35;;;1.83;;
51358;SDS011;37448;51.588;7.248;2023-07-13T09:29:40;6.93;;;2.45;;
51358;SDS011;37448;51.588;7.248;2023-07-13T09:31:47;5.60;;;2.10;;
51358;SDS011;37448;51.588;7.248;2023-07-13T09:33:53;5.05;;;2.15;;
51358;SDS011;37448;51.588;7.248;2023-07-13T09:35:53;3.60;;;1.98;;
51358;SDS011;37448;51.588;7.248;2023-07-13T09:37:57;7.18;;;2.22;;
51358;SDS011;37448;51.588;7.248;2023-07-13T09:40:24;4.07;;;2.47;;
51358;SDS011;37448;51.588;7.248;2023-07-13T09:42:32;6.05;;;2.25;;
51358;SDS011;37448;51.588;7.248;2023-07-13T09:44:35;4.97;;;2.25;;
51358;SDS011;37448;51.588;7.248;2023-07-13T09:46:45;6.13;;;3.15;;
51358;SDS011;37448;51.588;7.248;2023-07-13T09:48:51;6.10;;;2.30;;
51358;SDS011;37448;51.588;7.248;2023-07-13T09:50:55;7.40;;;3.28;;
51358;SDS011;37448;51.588;7.248;2023-07-13T09:52:57;5.15;;;2.85;;
51358;SDS011;37448;51.588;7.248;2023-07-13T09:54:59;6.20;;;2.80;;
51358;SDS011;37448;51.588;7.248;2023-07-13T09:57:00;7.93;;;3.38;;
51358;SDS011;37448;51.588;7.248;2023-07-13T09:59:02;5.05;;;2.80;;
51358;SDS011;37448;51.588;7.248;2023-07-13T10:01:03;5.63;;;3.00;;
51358;SDS011;37448;51.588;7.248;2023-07-13T10:03:05;4.05;;;2.67;;
51358;SDS011;37448;51.588;7.248;2023-07-13T10:05:16;8.73;;;3.10;;
51358;SDS011;37448;51.588;7.248;2023-07-13T10:07:17;5.22;;;2.97;;
51358;SDS011;37448;51.588;7.248;2023-07-13T10:09:22;5.97;;;2.85;;
51358;SDS011;37448;51.588;7.248;2023-07-13T10:11:27;6.15;;;3.17;;
51358;SDS011;37448;51.588;7.248;2023-07-13T10:13:33;5.90;;;2.30;;
51358;SDS011;37448;51.588;7.248;2023-07-13T10:15:36;10.20;;;3.28;;
51358;SDS011;37448;51.588;7.248;2023-07-13T10:17:37;6.07;;;2.88;;
51358;SDS011;37448;51.588;7.248;2023-07-13T10:19:37;6.38;;;2.05;;
51358;SDS011;37448;51.588;7.248;2023-07-13T10:22:14;6.00;;;2.40;;
51358;SDS011;37448;51.588;7.248;2023-07-13T10:24:25;4.13;;;2.03;;
51358;SDS011;37448;51.588;7.248;2023-07-13T10:26:33;3.90;;;1.90;;
51358;SDS011;37448;51.588;7.248;2023-07-13T10:28:37;6.43;;;2.33;;
51358;SDS011;37448;51.588;7.248;2023-07-13T10:30:40;6.60;;;2.33;;
51358;SDS011;37448;51.588;7.248;2023-07-13T10:32:43;5.65;;;2.28;;
51358;SDS011;37448;51.588;7.248;2023-07-13T10:34:45;5.03;;;2.20;;
51358;SDS011;37448;51.588;7.248;2023-07-13T10:36:48;6.88;;;2.10;;
51358;SDS011;37448;51.588;7.248;2023-07-13T10:38:49;2.97;;;2.03;;
51358;SDS011;37448;51.588;7.248;2023-07-13T10:40:55;4.65;;;1.95;;
51358;SDS011;37448;51.588;7.248;2023-07-13T10:42:58;4.72;;;2.22;;
51358;SDS011;37448;51.588;7.248;2023-07-13T10:45:04;5.20;;;2.38;;
51358;SDS011;37448;51.588;7.248;2023-07-13T10:47:16;7.93;;;2.13;;
51358;SDS011;37448;51.588;7.248;2023-07-13T10:49:18;6.80;;;2.05;;
51358;SDS011;37448;51.588;7.248;2023-07-13T10:51:19;4.65;;;2.28;;
51358;SDS011;37448;51.588;7.248;2023-07-13T10:57:42;4.30;;;2.10;;
51358;SDS011;37448;51.588;7.248;2023-07-13T11:00:10;4.85;;;2.10;;
51358;SDS011;37448;51.588;7.248;2023-07-13T11:02:26;4.30;;;2.10;;
51358;SDS011;37448;51.588;7.248;2023-07-13T11:04:29;5.18;;;2.15;;
51358;SDS011;37448;51.588;7.248;2023-07-13T11:06:40;3.95;;;2.15;;
51358;SDS011;37448;51.588;7.248;2023-07-13T11:10:54;4.65;;;2.40;;
51358;SDS011;37448;51.588;7.248;2023-07-13T11:12:55;4.53;;;2.17;;
51358;SDS011;37448;51.588;7.248;2023-07-13T11:16:58;3.97;;;2.13;;
51358;SDS011;37448;51.588;7.248;2023-07-13T11:21:12;6.63;;;2.00;;
51358;SDS011;37448;51.588;7.248;2023-07-13T11:23:27;5.75;;;2.25;;
51358;SDS011;37448;51.588;7.248;2023-07-13T11:25:31;6.57;;;2.33;;
51358;SDS011;37448;51.588;7.248;2023-07-13T11:27:35;5.35;;;2.00;;
51358;SDS011;37448;51.588;7.248;2023-07-13T11:29:39;5.03;;;2.40;;
51358;SDS011;37448;51.588;7.248;2023-07-13T11:31:40;3.35;;;1.75;;
51358;SDS011;37448;51.588;7.248;2023-07-13T11:33:51;5.57;;;2.08;;
51358;SDS011;37448;51.588;7.248;2023-07-13T11:37:57;4.03;;;1.88;;
51358;SDS011;37448;51.588;7.248;2023-07-13T11:39:57;3.40;;;1.83;;
51358;SDS011;37448;51.588;7.248;2023-07-13T11:41:59;4.90;;;1.80;;
51358;SDS011;37448;51.588;7.248;2023-07-13T11:44:21;3.20;;;1.40;;
51358;SDS011;37448;51.588;7.248;2023-07-13T11:46:24;5.53;;;2.00;;
51358;SDS011;37448;51.588;7.248;2023-07-13T11:48:27;6.10;;;1.85;;
51358;SDS011;37448;51.588;7.248;2023-07-13T11:50:29;5.78;;;1.88;;
51358;SDS011;37448;51.588;7.248;2023-07-13T11:52:35;4.72;;;1.73;;
51358;SDS011;37448;51.588;7.248;2023-07-13T11:54:46;5.80;;;1.88;;
51358;SDS011;37448;51.588;7.248;2023-07-13T11:57:05;3.85;;;1.75;;
51358;SDS011;37448;51.588;7.248;2023-07-13T11:59:18;5.97;;;2.20;;
51358;SDS011;37448;51.588;7.248;2023-07-13T12:01:20;6.22;;;1.90;;
51358;SDS011;37448;51.588;7.248;2023-07-13T12:03:22;4.70;;;1.52;;
51358;SDS011;37448;51.588;7.248;2023-07-13T12:07:27;4.57;;;1.88;;
51358;SDS011;37448;51.588;7.248;2023-07-13T12:09:29;4.75;;;2.13;;
51358;SDS011;37448;51.588;7.248;2023-07-13T12:11:30;4.72;;;1.92;;
51358;SDS011;37448;51.588;7.248;2023-07-13T12:13:37;5.03;;;1.67;;
51358;SDS011;37448;51.588;7.248;2023-07-13T12:15:45;3.65;;;1.85;;
51358;SDS011;37448;51.588;7.248;2023-07-13T12:17:47;3.63;;;1.42;;
51358;SDS011;37448;51.588;7.248;2023-07-13T12:19:49;3.20;;;1.60;;
51358;SDS011;37448;51.588;7.248;2023-07-13T12:21:52;4.22;;;1.38;;
51358;SDS011;37448;51.588;7.248;2023-07-13T12:25:54;2.90;;;1.52;;
51358;SDS011;37448;51.588;7.248;2023-07-13T12:27:56;2.60;;;1.50;;
51358;SDS011;37448;51.588;7.248;2023-07-13T12:30:00;4.53;;;1.80;;
51358;SDS011;37448;51.588;7.248;2023-07-13T12:32:08;2.75;;;1.83;;
51358;SDS011;37448;51.588;7.248;2023-07-13T12:34:11;4.10;;;1.60;;
51358;SDS011;37448;51.588;7.248;2023-07-13T12:36:13;3.03;;;1.50;;
51358;SDS011;37448;51.588;7.248;2023-07-13T12:38:15;6.38;;;1.90;;
51358;SDS011;37448;51.588;7.248;2023-07-13T12:40:16;3.88;;;1.95;;
51358;SDS011;37448;51.588;7.248;2023-07-13T12:42:27;2.47;;;1.40;;